createdAt,value
2023-02-11T00:01:49.732Z,75.32
2023-02-11T00:04:16.377Z,75.13
2023-02-11T00:06:43.003Z,77.28
2023-02-11T00:09:10.163Z,77.96
2023-02-11T00:11:36.921Z,76.85
2023-02-11T00:14:05.444Z,76.69
2023-02-11T00:16:32.570Z,75.71
2023-02-11T00:19:00.375Z,72.99
2023-02-11T00:21:27.067Z,69.93
2023-02-11T00:23:54.950Z,67.63
2023-02-11T00:26:23.477Z,67.35
2023-02-11T00:28:50.516Z,69.23
2023-02-11T00:31:17.814Z,71.05
2023-02-11T00:33:44.982Z,72.65
2023-02-11T00:36:22.617Z,71.49
2023-02-11T00:38:49.985Z,71.95
2023-02-11T00:41:17.005Z,72.20
2023-02-11T00:43:43.780Z,70.38
2023-02-11T00:46:10.580Z,70.96
2023-02-11T00:48:37.395Z,71.09
2023-02-11T00:51:04.338Z,71.40
2023-02-11T00:53:31.735Z,71.85
2023-02-11T00:55:58.402Z,71.94
2023-02-11T00:58:25.066Z,70.95
2023-02-11T01:00:51.730Z,71.74
2023-02-11T01:03:18.459Z,71.09
2023-02-11T01:05:45.295Z,70.85
2023-02-11T01:08:11.919Z,69.52
2023-02-11T01:10:38.526Z,69.50
2023-02-11T01:13:06.649Z,69.29
2023-02-11T01:15:33.509Z,70.06
2023-02-11T01:18:00.149Z,71.36
2023-02-11T01:20:27.751Z,70.93
2023-02-11T01:22:54.397Z,71.46
2023-02-11T01:25:21.114Z,74.08
2023-02-11T01:27:47.726Z,75.44
2023-02-11T01:30:14.421Z,76.21
2023-02-11T01:32:41.142Z,74.65
2023-02-11T01:35:08.240Z,73.78
2023-02-11T01:37:35.166Z,73.88
2023-02-11T01:40:02.764Z,74.56
2023-02-11T01:42:29.405Z,74.61
2023-02-11T01:44:57.386Z,75.51
2023-02-11T01:47:24.034Z,75.03
2023-02-11T01:49:56.157Z,75.11
2023-02-11T01:52:35.729Z,75.32
2023-02-11T01:55:22.937Z,74.27
2023-02-11T01:57:52.841Z,74.50
2023-02-11T02:00:24.296Z,74.54
2023-02-11T02:03:06.532Z,76.01
2023-02-11T02:05:40.469Z,75.64
2023-02-11T02:08:20.293Z,77.44
2023-02-11T02:10:48.499Z,78.10
2023-02-11T02:13:15.371Z,78.72
2023-02-11T02:15:46.740Z,78.37
2023-02-11T02:18:31.820Z,78.34
2023-02-11T02:21:07.428Z,77.80
2023-02-11T02:23:43.100Z,77.42
2023-02-11T02:26:09.620Z,76.71
2023-02-11T02:28:42.284Z,76.26
2023-02-11T02:31:30.124Z,77.37
2023-02-11T02:34:01.603Z,79.39
2023-02-11T02:36:40.533Z,80.05
2023-02-11T02:39:16.143Z,78.89
2023-02-11T02:41:42.833Z,78.21
2023-02-11T02:44:09.538Z,77.46
2023-02-11T02:46:36.362Z,75.36
2023-02-11T02:49:03.188Z,75.63
2023-02-11T02:51:51.733Z,75.91
2023-02-11T02:54:18.242Z,76.39
2023-02-11T02:56:56.427Z,75.75
2023-02-11T02:59:35.082Z,75.18
2023-02-11T03:02:35.349Z,73.70
2023-02-11T03:05:23.892Z,73.20
2023-02-11T03:08:09.266Z,73.65
2023-02-11T03:10:43.837Z,72.70
2023-02-11T03:13:10.582Z,73.07
2023-02-11T03:15:39.133Z,72.10
2023-02-11T03:18:05.839Z,71.99
2023-02-11T03:20:33.372Z,70.47
2023-02-11T03:23:08.020Z,71.43
2023-02-11T03:25:37.473Z,69.83
2023-02-11T03:28:22.357Z,68.59
2023-02-11T03:31:29.491Z,68.84
2023-02-11T03:34:02.399Z,69.02
2023-02-11T03:36:48.020Z,69.52
2023-02-11T03:39:17.750Z,69.44
2023-02-11T03:41:44.498Z,70.27
2023-02-11T03:44:11.132Z,70.25
2023-02-11T03:46:38.319Z,68.45
2023-02-11T03:49:08.631Z,68.62
2023-02-11T03:51:35.379Z,68.21
2023-02-11T03:54:02.815Z,69.07
2023-02-11T03:56:30.576Z,69.29
2023-02-11T03:58:57.413Z,69.72
2023-02-11T04:01:24.141Z,70.01
2023-02-11T04:03:50.845Z,69.13
2023-02-11T04:06:17.530Z,68.25
2023-02-11T04:08:44.256Z,68.65
2023-02-11T04:11:10.938Z,70.89
2023-02-11T04:13:37.602Z,71.35
2023-02-11T04:16:04.343Z,71.99
2023-02-11T04:18:31.177Z,72.99
2023-02-11T04:20:57.933Z,71.95
2023-02-11T04:23:24.646Z,71.42
2023-02-11T04:25:51.606Z,69.49
2023-02-11T04:28:18.895Z,69.50
2023-02-11T04:30:45.615Z,67.21
2023-02-11T04:33:12.309Z,67.39
2023-02-11T04:35:38.912Z,68.01
2023-02-11T04:38:05.513Z,68.30
2023-02-11T04:40:32.198Z,68.36
2023-02-11T04:42:58.829Z,68.62
2023-02-11T04:45:25.603Z,69.20
2023-02-11T04:47:52.305Z,69.78
2023-02-11T04:50:18.961Z,69.66
2023-02-11T04:52:45.605Z,70.67
2023-02-11T04:55:12.990Z,69.79
2023-02-11T04:57:39.686Z,67.74
2023-02-11T05:00:06.749Z,69.78
2023-02-11T05:02:33.453Z,69.25
2023-02-11T05:05:00.153Z,68.06
2023-02-11T05:07:26.867Z,68.61
2023-02-11T05:09:53.454Z,68.79
2023-02-11T05:12:20.230Z,68.64
2023-02-11T05:14:46.983Z,69.14
2023-02-11T05:17:13.634Z,70.58
2023-02-11T05:19:41.409Z,71.30
2023-02-11T05:22:08.160Z,70.96
2023-02-11T05:24:34.879Z,70.30
2023-02-11T05:27:01.666Z,72.42
2023-02-11T05:29:28.684Z,71.56
2023-02-11T05:31:55.255Z,72.24
2023-02-11T05:34:21.932Z,72.60
2023-02-11T05:36:48.616Z,72.32
2023-02-11T05:39:15.300Z,71.33
2023-02-11T05:41:41.999Z,71.51
2023-02-11T05:44:08.675Z,71.54
2023-02-11T05:46:35.392Z,71.19
2023-02-11T05:49:02.089Z,70.34
2023-02-11T05:51:28.818Z,71.17
2023-02-11T05:53:55.448Z,71.55
2023-02-11T05:56:22.123Z,71.43
2023-02-11T05:58:48.798Z,71.50
2023-02-11T06:01:15.468Z,72.84
2023-02-11T06:03:42.302Z,73.45
2023-02-11T06:06:12.638Z,76.59
2023-02-11T06:08:39.518Z,75.80
2023-02-11T06:11:06.261Z,75.96
2023-02-11T06:13:33.045Z,74.69
2023-02-11T06:16:00.404Z,75.18
2023-02-11T06:18:27.267Z,74.61
2023-02-11T06:20:54.023Z,74.01
2023-02-11T06:23:21.106Z,74.70
2023-02-11T06:25:47.850Z,74.99
2023-02-11T06:28:14.610Z,74.96
2023-02-11T06:30:41.554Z,74.58
2023-02-11T06:33:08.219Z,74.42
2023-02-11T06:35:35.446Z,74.51
2023-02-11T06:38:02.311Z,75.24
2023-02-11T06:40:28.973Z,76.40
2023-02-11T06:42:55.641Z,75.87
2023-02-11T06:45:22.350Z,75.23
2023-02-11T06:47:50.587Z,75.00
2023-02-11T06:50:17.239Z,75.41
2023-02-11T06:52:44.128Z,76.01
2023-02-11T06:55:10.778Z,75.30
2023-02-11T06:57:37.450Z,75.49
2023-02-11T07:00:05.677Z,75.98
2023-02-11T07:02:32.580Z,75.62
2023-02-11T07:04:59.264Z,75.06
2023-02-11T07:07:25.970Z,75.25
2023-02-11T07:09:52.681Z,76.12
2023-02-11T07:12:19.333Z,76.01
2023-02-11T07:14:46.139Z,75.87
2023-02-11T07:17:12.746Z,75.80
2023-02-11T07:19:39.447Z,75.92
2023-02-11T07:22:06.159Z,76.22
2023-02-11T07:24:32.808Z,75.17
2023-02-11T07:26:59.519Z,74.91
2023-02-11T07:29:26.188Z,75.17
2023-02-11T07:31:53.018Z,74.85
2023-02-11T07:34:19.734Z,74.31
2023-02-11T07:36:46.542Z,74.16
2023-02-11T07:39:13.684Z,73.83
2023-02-11T07:41:40.419Z,72.83
2023-02-11T07:44:07.160Z,73.48
2023-02-11T07:46:35.714Z,73.18
2023-02-11T07:49:02.576Z,73.54
2023-02-11T07:51:29.957Z,73.18
2023-02-11T07:53:57.731Z,73.26
2023-02-11T07:56:24.378Z,72.39
2023-02-11T07:58:51.171Z,71.36
2023-02-11T08:01:20.375Z,72.47
2023-02-11T08:03:47.078Z,72.90
2023-02-11T08:06:17.979Z,72.03
2023-02-11T08:08:44.705Z,72.62
2023-02-11T08:11:13.252Z,70.55
2023-02-11T08:13:39.996Z,72.43
2023-02-11T08:16:07.323Z,70.55
2023-02-11T08:18:34.472Z,70.47
2023-02-11T08:21:05.857Z,70.49
2023-02-11T08:23:32.523Z,69.26
2023-02-11T08:26:03.806Z,69.41
2023-02-11T08:28:30.632Z,68.70
2023-02-11T08:30:57.437Z,68.78
2023-02-11T08:33:24.102Z,67.83
2023-02-11T08:35:50.721Z,67.88
2023-02-11T08:38:17.298Z,68.27
2023-02-11T08:40:43.893Z,67.17
2023-02-11T08:43:10.541Z,67.14
2023-02-11T08:45:37.653Z,62.79
2023-02-11T08:48:04.446Z,64.10
2023-02-11T08:50:32.362Z,64.49
2023-02-11T08:52:59.090Z,64.12
2023-02-11T08:55:25.793Z,64.42
2023-02-11T08:57:52.447Z,63.80
2023-02-11T09:00:19.375Z,62.76
2023-02-11T09:02:46.148Z,63.37
2023-02-11T09:05:13.167Z,63.30
2023-02-11T09:07:39.882Z,61.61
2023-02-11T09:10:06.697Z,59.54
2023-02-11T09:12:33.429Z,60.92
2023-02-11T09:15:00.092Z,60.83
2023-02-11T09:17:26.813Z,62.12
2023-02-11T09:19:53.546Z,61.05
2023-02-11T09:22:20.210Z,59.72
2023-02-11T09:24:46.878Z,58.81
2023-02-11T09:27:13.664Z,57.31
2023-02-11T09:29:40.368Z,57.40
2023-02-11T09:32:09.760Z,57.77
2023-02-11T09:34:36.759Z,58.52
2023-02-11T09:37:03.490Z,55.25
2023-02-11T09:39:30.209Z,51.65
2023-02-11T09:42:10.934Z,51.56
2023-02-11T09:44:37.917Z,49.58
2023-02-11T09:47:21.225Z,50.49
2023-02-11T09:49:50.608Z,49.01
2023-02-11T09:52:32.716Z,49.58
2023-02-11T09:55:04.648Z,48.36
2023-02-11T09:57:36.116Z,48.02
2023-02-11T10:00:07.686Z,48.83
2023-02-11T10:02:57.184Z,49.08
2023-02-11T10:05:35.856Z,49.61
2023-02-11T10:08:13.640Z,50.02
2023-02-11T10:10:52.323Z,49.52
2023-02-11T10:13:25.026Z,49.57
2023-02-11T10:15:58.488Z,48.80
2023-02-11T10:19:09.842Z,48.60
2023-02-11T10:22:13.884Z,49.80
2023-02-11T10:24:40.576Z,50.06
2023-02-11T10:27:15.467Z,51.91
2023-02-11T10:29:45.673Z,51.87
2023-02-11T10:32:47.676Z,49.98
2023-02-11T10:35:19.099Z,48.66
2023-02-11T10:37:45.865Z,46.17
2023-02-11T10:40:24.170Z,44.53
2023-02-11T10:42:55.494Z,42.45
2023-02-11T10:45:27.571Z,43.75
2023-02-11T10:47:55.271Z,41.31
2023-02-11T10:50:26.042Z,40.16
2023-02-11T10:52:52.855Z,37.80
2023-02-11T10:55:21.606Z,39.28
2023-02-11T10:57:56.507Z,40.04
2023-02-11T11:00:34.130Z,40.13
2023-02-11T11:03:00.881Z,42.08
2023-02-11T11:05:36.333Z,41.10
2023-02-11T11:08:07.789Z,41.66
2023-02-11T11:10:44.960Z,41.60
2023-02-11T11:13:23.447Z,42.13
2023-02-11T11:16:13.905Z,42.39
2023-02-11T11:18:41.560Z,38.81
2023-02-11T11:21:25.578Z,38.87
2023-02-11T11:23:57.535Z,38.21
2023-02-11T11:26:28.518Z,40.63
2023-02-11T11:29:00.491Z,39.84
2023-02-11T11:31:31.757Z,37.37
2023-02-11T11:33:59.772Z,36.99
2023-02-11T11:36:35.110Z,37.93
2023-02-11T11:39:04.427Z,40.06
2023-02-11T11:41:34.531Z,40.41
2023-02-11T11:44:03.919Z,37.40
2023-02-11T11:46:36.089Z,37.11
2023-02-11T11:49:34.104Z,33.38
2023-02-11T11:52:23.892Z,36.37
2023-02-11T11:54:55.517Z,35.97
2023-02-11T11:57:24.569Z,36.29
2023-02-11T11:59:51.242Z,35.44
2023-02-11T12:02:22.100Z,37.04
2023-02-11T12:05:06.414Z,33.74
2023-02-11T12:07:36.804Z,32.21
2023-02-11T12:10:34.483Z,36.26
2023-02-11T12:13:09.231Z,34.74
2023-02-11T12:16:00.634Z,37.10
2023-02-11T12:18:51.240Z,35.81
2023-02-11T12:21:23.871Z,34.06
2023-02-11T12:24:16.319Z,32.73
2023-02-11T12:27:06.579Z,33.52
2023-02-11T12:29:51.737Z,33.44
2023-02-11T12:32:33.429Z,30.86
2023-02-11T12:35:15.157Z,31.87
2023-02-11T12:38:09.600Z,34.97
2023-02-11T12:40:44.210Z,33.19
2023-02-11T12:43:39.278Z,32.19
2023-02-11T12:46:21.093Z,31.52
2023-02-11T12:49:09.144Z,34.32
2023-02-11T12:51:39.948Z,37.04
2023-02-11T12:54:26.632Z,34.95
2023-02-11T12:56:55.634Z,37.40
2023-02-11T12:59:52.079Z,35.07
2023-02-11T13:02:41.633Z,33.08
2023-02-11T13:05:20.168Z,32.66
2023-02-11T13:07:46.884Z,35.35
2023-02-11T13:10:33.682Z,34.94
2023-02-11T13:13:18.523Z,34.88
2023-02-11T13:15:57.049Z,35.08
2023-02-11T13:18:49.990Z,34.29
2023-02-11T13:21:16.688Z,34.56
2023-02-11T13:24:09.451Z,34.07
2023-02-11T13:27:00.245Z,34.85
2023-02-11T13:29:51.064Z,33.11
2023-02-11T13:32:17.653Z,32.29
2023-02-11T13:34:44.289Z,32.72
2023-02-11T13:37:29.042Z,32.96
2023-02-11T13:40:00.186Z,33.25
2023-02-11T13:42:27.454Z,34.35
2023-02-11T13:44:54.261Z,33.26
2023-02-11T13:47:28.317Z,33.22
2023-02-11T13:49:54.803Z,32.98
2023-02-11T13:52:29.791Z,33.95
2023-02-11T13:54:59.006Z,34.36
2023-02-11T13:57:31.332Z,35.99
2023-02-11T13:59:59.840Z,35.67
2023-02-11T14:02:52.674Z,34.96
2023-02-11T14:05:42.520Z,36.34
2023-02-11T14:08:30.237Z,36.41
2023-02-11T14:11:01.039Z,37.56
2023-02-11T14:13:34.238Z,35.90
2023-02-11T14:16:10.026Z,36.54
2023-02-11T14:18:52.525Z,37.91
2023-02-11T14:21:23.426Z,38.16
2023-02-11T14:23:53.389Z,38.79
2023-02-11T14:26:20.166Z,38.56
2023-02-11T14:29:07.600Z,39.67
2023-02-11T14:31:44.023Z,40.39
2023-02-11T14:34:48.810Z,40.12
2023-02-11T14:37:19.516Z,39.94
2023-02-11T14:39:54.891Z,39.78
2023-02-11T14:42:26.543Z,40.79
2023-02-11T14:44:55.063Z,41.59
2023-02-11T14:47:40.254Z,41.97
2023-02-11T14:50:09.888Z,41.14
2023-02-11T14:52:36.563Z,42.10
2023-02-11T14:55:29.502Z,41.07
2023-02-11T14:58:15.351Z,41.64
2023-02-11T15:00:52.749Z,42.42
2023-02-11T15:03:48.938Z,42.82
2023-02-11T15:06:18.826Z,42.99
2023-02-11T15:08:51.443Z,43.12
2023-02-11T15:11:19.516Z,44.24
2023-02-11T15:13:50.320Z,46.61
2023-02-11T15:16:19.839Z,45.92
2023-02-11T15:18:54.541Z,45.79
2023-02-11T15:21:30.058Z,45.00
2023-02-11T15:24:20.945Z,45.55
2023-02-11T15:27:04.485Z,47.52
2023-02-11T15:29:39.682Z,47.69
2023-02-11T15:32:07.260Z,47.43
2023-02-11T15:34:34.037Z,48.46
2023-02-11T15:37:01.047Z,49.92
2023-02-11T15:39:38.449Z,51.25
2023-02-11T15:42:21.110Z,50.68
2023-02-11T15:44:54.337Z,52.23
2023-02-11T15:47:23.213Z,53.16
2023-02-11T15:49:49.968Z,53.52
2023-02-11T15:52:23.621Z,53.67
2023-02-11T15:54:50.299Z,53.67
2023-02-11T15:57:17.988Z,53.78
2023-02-11T15:59:49.673Z,54.41
2023-02-11T16:02:19.275Z,54.68
2023-02-11T16:05:06.407Z,55.02
2023-02-11T16:07:47.360Z,55.15
2023-02-11T16:10:24.281Z,55.84
2023-02-11T16:13:04.543Z,56.83
2023-02-11T16:15:45.875Z,58.90
2023-02-11T16:18:15.583Z,58.29
2023-02-11T16:20:47.118Z,58.57
2023-02-11T16:23:31.895Z,58.08
2023-02-11T16:26:08.542Z,59.43
2023-02-11T16:28:36.938Z,59.70
2023-02-11T16:31:03.844Z,58.87
2023-02-11T16:33:30.670Z,59.26
2023-02-11T16:35:57.824Z,57.97
2023-02-11T16:38:24.687Z,57.16
2023-02-11T16:40:51.756Z,57.64
2023-02-11T16:43:19.958Z,57.91
2023-02-11T16:45:47.068Z,59.18
2023-02-11T16:48:17.564Z,59.99
2023-02-11T16:50:46.653Z,60.49
2023-02-11T16:53:22.333Z,60.01
2023-02-11T16:55:49.179Z,60.83
2023-02-11T16:58:15.861Z,59.57
2023-02-11T17:00:44.857Z,60.13
2023-02-11T17:03:21.355Z,59.39
2023-02-11T17:05:55.434Z,58.49
2023-02-11T17:08:22.797Z,58.67
2023-02-11T17:10:50.048Z,59.06
2023-02-11T17:13:17.037Z,59.61
2023-02-11T17:15:43.710Z,60.81
2023-02-11T17:18:12.676Z,62.33
2023-02-11T17:20:39.490Z,63.65
2023-02-11T17:23:06.272Z,62.41
2023-02-11T17:25:32.991Z,61.70
2023-02-11T17:27:59.653Z,59.52
2023-02-11T17:30:26.374Z,61.89
2023-02-11T17:32:52.980Z,60.88
2023-02-11T17:35:19.655Z,62.40
2023-02-11T17:37:46.470Z,63.28
2023-02-11T17:40:13.719Z,64.30
2023-02-11T17:42:40.515Z,62.04
2023-02-11T17:45:08.551Z,62.50
2023-02-11T17:47:35.343Z,62.71
2023-02-11T17:50:03.050Z,63.20
2023-02-11T17:52:29.908Z,64.08
2023-02-11T17:54:57.941Z,65.66
2023-02-11T17:57:24.611Z,67.49
2023-02-11T17:59:51.596Z,66.37
2023-02-11T18:02:18.194Z,65.38
2023-02-11T18:04:44.973Z,63.67
2023-02-11T18:07:11.773Z,63.55
2023-02-11T18:09:39.400Z,62.92
2023-02-11T18:12:06.782Z,62.87
2023-02-11T18:14:34.065Z,62.71
2023-02-11T18:17:00.797Z,62.92
2023-02-11T18:19:30.607Z,63.87
2023-02-11T18:22:00.837Z,64.90
2023-02-11T18:24:27.746Z,63.96
2023-02-11T18:26:54.576Z,65.01
2023-02-11T18:29:21.371Z,66.33
2023-02-11T18:31:48.089Z,66.21
2023-02-11T18:34:15.946Z,68.54
2023-02-11T18:36:42.740Z,68.31
2023-02-11T18:39:09.473Z,66.64
2023-02-11T18:41:36.272Z,67.17
2023-02-11T18:44:04.945Z,66.18
2023-02-11T18:46:31.803Z,65.96
2023-02-11T18:48:58.603Z,66.10
2023-02-11T18:51:25.544Z,65.51
2023-02-11T18:53:52.359Z,66.47
2023-02-11T18:56:20.692Z,65.64
2023-02-11T18:58:47.821Z,66.94
2023-02-11T19:01:25.988Z,66.80
2023-02-11T19:03:53.360Z,66.25
2023-02-11T19:06:25.420Z,69.19
2023-02-11T19:08:53.013Z,68.87
2023-02-11T19:11:19.951Z,69.63
2023-02-11T19:13:51.362Z,71.59
2023-02-11T19:16:19.817Z,69.27
2023-02-11T19:18:46.712Z,67.19
2023-02-11T19:21:13.413Z,66.79
2023-02-11T19:23:40.093Z,66.75
2023-02-11T19:26:06.902Z,67.25
2023-02-11T19:28:34.117Z,67.94
2023-02-11T19:31:08.639Z,69.53
2023-02-11T19:33:35.475Z,69.02
2023-02-11T19:36:06.107Z,68.09
2023-02-11T19:38:32.898Z,71.21
2023-02-11T19:40:59.541Z,71.67
2023-02-11T19:43:26.773Z,70.03
2023-02-11T19:45:56.648Z,69.12
2023-02-11T19:48:26.463Z,68.04
2023-02-11T19:50:53.562Z,67.94
2023-02-11T19:53:20.392Z,68.30
2023-02-11T19:55:47.391Z,68.63
2023-02-11T19:58:14.564Z,66.26
2023-02-11T20:00:41.272Z,64.59
2023-02-11T20:03:08.132Z,63.53
2023-02-11T20:05:35.119Z,64.32
2023-02-11T20:08:01.831Z,64.34
2023-02-11T20:10:28.561Z,64.90
2023-02-11T20:12:55.298Z,64.39
2023-02-11T20:15:22.031Z,64.48
2023-02-11T20:17:49.046Z,64.43
2023-02-11T20:20:15.851Z,65.36
2023-02-11T20:22:42.526Z,64.97
2023-02-11T20:25:10.921Z,65.18
2023-02-11T20:27:38.830Z,63.70
2023-02-11T20:30:06.019Z,65.43
2023-02-11T20:32:38.030Z,64.26
2023-02-11T20:35:05.934Z,64.12
2023-02-11T20:37:32.673Z,65.39
2023-02-11T20:39:59.355Z,63.66
2023-02-11T20:42:26.722Z,63.73
2023-02-11T20:44:53.498Z,64.94
2023-02-11T20:47:20.133Z,65.38
2023-02-11T20:49:46.846Z,64.62
2023-02-11T20:52:13.413Z,64.98
2023-02-11T20:54:40.181Z,63.78
2023-02-11T20:57:07.499Z,66.47
2023-02-11T20:59:34.157Z,66.80
2023-02-11T21:02:01.621Z,65.70
2023-02-11T21:04:29.837Z,65.59
2023-02-11T21:07:00.493Z,63.30
2023-02-11T21:09:29.184Z,64.61
2023-02-11T21:11:55.925Z,63.72
2023-02-11T21:14:24.021Z,63.38
2023-02-11T21:16:50.826Z,63.72
2023-02-11T21:19:17.538Z,62.46
2023-02-11T21:21:44.431Z,60.10
2023-02-11T21:24:11.099Z,61.71
2023-02-11T21:26:37.766Z,61.33
2023-02-11T21:29:05.269Z,63.14
2023-02-11T21:31:32.848Z,62.93
2023-02-11T21:33:59.724Z,62.64
2023-02-11T21:36:27.395Z,63.31
2023-02-11T21:38:54.155Z,65.28
2023-02-11T21:41:22.575Z,65.17
2023-02-11T21:43:49.679Z,64.48
2023-02-11T21:46:16.542Z,65.11
2023-02-11T21:48:43.428Z,64.73
2023-02-11T21:51:16.343Z,64.82
2023-02-11T21:53:43.037Z,64.47
2023-02-11T21:56:14.626Z,64.38
2023-02-11T21:58:41.398Z,64.09
2023-02-11T22:01:15.744Z,64.64
2023-02-11T22:03:42.623Z,63.41
2023-02-11T22:06:10.760Z,65.13
2023-02-11T22:08:37.788Z,66.07
2023-02-11T22:11:08.684Z,65.60
2023-02-11T22:13:35.405Z,67.37
2023-02-11T22:16:03.664Z,65.95
2023-02-11T22:18:30.537Z,65.56
2023-02-11T22:21:08.264Z,67.66
2023-02-11T22:23:35.033Z,65.86
2023-02-11T22:26:11.963Z,65.40
2023-02-11T22:28:40.552Z,63.63
2023-02-11T22:31:08.260Z,64.53
2023-02-11T22:33:34.970Z,64.39
2023-02-11T22:36:02.765Z,63.17
2023-02-11T22:38:30.037Z,63.53
2023-02-11T22:40:57.121Z,64.18
2023-02-11T22:43:23.900Z,63.49
2023-02-11T22:45:50.725Z,63.36
2023-02-11T22:48:17.616Z,64.01
2023-02-11T22:50:44.479Z,62.73
2023-02-11T22:53:11.172Z,63.63
2023-02-11T22:55:38.827Z,63.62
2023-02-11T22:58:05.799Z,63.51
2023-02-11T23:00:37.113Z,64.85
2023-02-11T23:03:04.508Z,65.49
2023-02-11T23:05:31.192Z,65.54
2023-02-11T23:07:57.800Z,66.56
2023-02-11T23:10:24.448Z,65.01
2023-02-11T23:12:51.127Z,63.63
2023-02-11T23:15:17.968Z,61.86
2023-02-11T23:17:44.741Z,60.41
2023-02-11T23:20:11.883Z,61.11
2023-02-11T23:22:38.696Z,60.95
2023-02-11T23:25:05.646Z,61.30
2023-02-11T23:27:32.384Z,60.73
2023-02-11T23:29:59.127Z,61.83
2023-02-11T23:32:25.991Z,62.10
2023-02-11T23:34:52.888Z,62.13
2023-02-11T23:37:19.563Z,61.75
2023-02-11T23:39:46.305Z,60.12
2023-02-11T23:42:13.034Z,60.34
2023-02-11T23:44:39.761Z,60.46
2023-02-11T23:47:06.456Z,60.35
2023-02-11T23:49:33.504Z,60.38
2023-02-11T23:52:00.139Z,61.01
2023-02-11T23:54:26.815Z,60.60
2023-02-11T23:56:53.569Z,59.54
2023-02-11T23:59:20.266Z,60.32
